• Join FlightAware (Why Join?)
  • Login
  • US Flag 
03:27AM EDT


 

Airport Tracker/Info


-or-


 

Live Flight TrackerFlight Track Log ✈ UAL1432 ✈ 14-Jan-2014 ✈ KIAH - MNMG / MGA

Flight Track Log - Related Links

Times and Time Zones

All times are in EST time to prevent confusion due to time zone crossing. See the UAL1432 flight status page for this flight to view local times or setup timezone preferences in your user account.

Time Position Orientation Groundspeed Altitude Reporting Facility
EST Latitude Longitude Course Direction KTS MPH feet Rate Location/Type
10:10AM 29.9572 -95.3392 144° Southeast 177 204 900  Level Houston Center
10:11AM 29.9114 -95.2750 129° Southeast 244 281 3,500 1,980 Climbing Houston Center
10:12AM 29.6616 -95.1486 151° Southeast  Level Estimated
10:12AM 29.8914 -95.2428 126° Southeast 228 262 4,400  Level Houston Center
10:12AM 29.8578 -95.1969 130° Southeast 287 330 6,200 2,580 Climbing Houston Center
10:13AM 29.5584 -95.0755 148° Southeast  Level FlightAware Approximate
10:13AM 29.8403 -95.1719 129° Southeast 280 322 7,100  Level Houston Center
10:13AM 29.7964 -95.1444 151° Southeast 317 365 8,600 2,880 Climbing Houston Center
10:14AM 29.4506 -95.0117 152° Southeast  Level Estimated
10:14AM 29.7636 -95.1253 153° Southeast 309 356 10,100  Level Houston Center
10:15AM 29.3428 -94.9480 144° Southeast  Level Estimated
10:15AM 29.6753 -95.0786 155° Southeast 339 390 11,800  Level Houston Center
10:16AM 29.5756 -95.0275 156° South 378 435 14,500 2,640 Climbing Houston Center
10:17AM 29.4769 -94.9758 155° Southeast 385 443 17,300 2,340 Climbing Houston Center
10:18AM 29.3733 -94.9217 156° South 400 460 19,400 2,280 Climbing Houston Center
10:19AM 29.2478 -94.8542 155° Southeast 414 476 22,100 2,160 Climbing Houston Center
10:20AM 29.1439 -94.7822 149° Southeast 431 496 24,000 1,800 Climbing Houston Center
10:21AM 29.0406 -94.7122 149° Southeast 434 499 25,900 1,560 Climbing Houston Center
10:22AM 28.9350 -94.6408 149° Southeast 438 504 27,300 1,200 Climbing Houston Center
10:23AM 28.8247 -94.5658 149° Southeast 457 526 28,400 1,200 Climbing Houston Center
10:24AM 28.7119 -94.4903 150° Southeast 468 539 29,900 1,620 Climbing Houston Center
10:25AM 28.5783 -94.3997 149° Southeast 467 537 31,800 1,500 Climbing Houston Center
10:26AM 28.4692 -94.3267 150° Southeast 459 528 33,000 540 Climbing Houston Center
10:27AM 28.3617 -94.2553 150° Southeast 450 518 33,000  Level Houston Center
10:28AM 28.2544 -94.1847 150° Southeast 446 513 33,000  Level Houston Center
10:29AM 28.1458 -94.1131 150° Southeast 451 519 33,000  Level Houston Center
10:30AM 28.0339 -93.9903 136° Southeast 463 533 33,000  Level Houston Center
10:31AM 27.9364 -93.8972 140° Southeast 462 532 33,000  Level Houston Center
10:32AM 27.8372 -93.8081 142° Southeast 460 529 33,000  Level Houston Center
10:33AM 27.7386 -93.7211 142° Southeast 454 522 33,000  Level Houston Center
10:34AM 27.6419 -93.6306 140° Southeast 452 520 33,000  Level Houston Center
10:35AM 27.5433 -93.5383 140° Southeast 456 525 33,000  Level Houston Center
10:36AM 27.4281 -93.4294 140° Southeast 454 522 33,000  Level Houston Center
10:37AM 27.3314 -93.3347 139° Southeast 457 526 33,000  Level Houston Center
10:38AM 27.2331 -93.2428 140° Southeast 458 527 33,000  Level Houston Center
10:40AM 27.1333 -93.1503 140° Southeast 461 531 33,000  Level Houston Center
10:41AM 27.0331 -93.0592 141° Southeast 462 532 33,000 -60 Level Houston Center
10:42AM 26.9161 -92.9467 139° Southeast 463 533 32,900  Descending Houston Center
10:43AM 26.8192 -92.8581 141° Southeast 460 529 33,000  Climbing Houston Center
10:44AM 26.7172 -92.7767 145° Southeast 457 526 33,000  Level Houston Center
10:46AM 26.5286 -92.6527 150° Southeast  Level FlightAware Approximate
10:53AM 25.8141 -92.1873 149° Southeast  Level FlightAware Approximate
10:54AM 25.7124 -92.1204 149° Southeast  Level FlightAware Approximate
10:55AM 25.6106 -92.0536 149° Southeast  Level FlightAware Approximate
10:56AM 25.5088 -91.9870 149° Southeast  Level FlightAware Approximate
10:57AM 25.4070 -91.9204 149° Southeast  Level FlightAware Approximate
10:58AM 25.3051 -91.8540 149° Southeast  Level FlightAware Approximate
10:59AM 25.2032 -91.7877 149° Southeast  Level FlightAware Approximate
11:00AM 25.1013 -91.7214 150° Southeast  Level FlightAware Approximate
11:01AM 24.9994 -91.6553 150° Southeast  Level FlightAware Approximate
11:02AM 24.8974 -91.5893 150° Southeast  Level FlightAware Approximate
11:03AM 24.7954 -91.5234 150° Southeast  Level FlightAware Approximate
11:04AM 24.6934 -91.4577 150° Southeast  Level FlightAware Approximate
11:05AM 24.5913 -91.3920 150° Southeast  Level FlightAware Approximate
11:06AM 24.4885 -91.3280 157° South  Level FlightAware Approximate
11:07AM 24.3795 -91.2777 157° South  Level FlightAware Approximate
11:08AM 24.2707 -91.2270 155° Southeast  Level FlightAware Approximate
11:09AM 24.1631 -91.1732 155° Southeast  Level FlightAware Approximate
11:10AM 24.0559 -91.1185 154° Southeast  Level FlightAware Approximate
11:11AM 23.9498 -91.0614 154° Southeast  Level FlightAware Approximate
11:12AM 23.8429 -91.0062 158° South  Level FlightAware Approximate
11:13AM 23.7333 -90.9578 158° South  Level FlightAware Approximate
11:14AM 23.6236 -90.9096 158° South  Level FlightAware Approximate
11:15AM 23.5140 -90.8614 158° South  Level FlightAware Approximate
11:16AM 23.4052 -90.8109 155° Southeast  Level FlightAware Approximate
11:17AM 23.2978 -90.7572 155° Southeast  Level FlightAware Approximate
11:18AM 23.1898 -90.7047 156° South  Level FlightAware Approximate
11:19AM 23.0815 -90.6532 156° South  Level FlightAware Approximate
11:20AM 22.9731 -90.6018 156° South  Level FlightAware Approximate
11:21AM 22.8647 -90.5504 156° South  Level FlightAware Approximate
11:22AM 22.7564 -90.4992 156° South  Level FlightAware Approximate
11:23AM 22.6480 -90.4480 156° South  Level FlightAware Approximate
11:24AM 22.5395 -90.3969 156° South  Level FlightAware Approximate
11:25AM 22.4311 -90.3459 156° South  Level FlightAware Approximate
11:26AM 22.3227 -90.2950 157° South  Level FlightAware Approximate
11:27AM 22.2142 -90.2441 157° South  Level FlightAware Approximate
11:28AM 22.1057 -90.1933 157° South  Level FlightAware Approximate
11:29AM 21.9972 -90.1426 157° South  Level FlightAware Approximate
11:30AM 21.8887 -90.0920 157° South  Level FlightAware Approximate
11:31AM 21.7802 -90.0415 157° South  Level FlightAware Approximate
11:32AM 21.6716 -89.9910 157° South  Level FlightAware Approximate
11:33AM 21.5631 -89.9406 157° South  Level FlightAware Approximate
11:34AM 21.4545 -89.8903 157° South  Level FlightAware Approximate
11:35AM 21.3459 -89.8401 157° South  Level FlightAware Approximate
11:36AM 21.2373 -89.7899 157° South  Level FlightAware Approximate
11:37AM 21.1287 -89.7399 157° South  Level FlightAware Approximate
11:38AM 21.0200 -89.6898 157° South  Level FlightAware Approximate
11:39AM 20.9110 -89.6409 159° South  Level FlightAware Approximate
11:40AM 20.8004 -89.5961 159° South  Level FlightAware Approximate
11:41AM 20.6898 -89.5514 159° South  Level FlightAware Approximate
11:42AM 20.5792 -89.5067 159° South  Level FlightAware Approximate
11:43AM 20.4686 -89.4621 159° South  Level FlightAware Approximate
11:44AM 20.3580 -89.4175 159° South  Level FlightAware Approximate
11:45AM 20.2474 -89.3731 159° South  Level FlightAware Approximate
11:46AM 20.1367 -89.3287 159° South  Level FlightAware Approximate
11:47AM 20.0261 -89.2843 159° South  Level FlightAware Approximate
11:48AM 19.9154 -89.2400 159° South  Level FlightAware Approximate
11:49AM 19.8048 -89.1958 159° South  Level FlightAware Approximate
11:50AM 19.6941 -89.1516 159° South  Level FlightAware Approximate
11:51AM 19.5834 -89.1075 159° South  Level FlightAware Approximate
11:52AM 19.4727 -89.0634 159° South  Level FlightAware Approximate
11:53AM 19.3619 -89.0194 159° South  Level FlightAware Approximate
11:54AM 19.2512 -88.9755 159° South  Level FlightAware Approximate
11:55AM 19.1405 -88.9316 159° South  Level FlightAware Approximate
11:56AM 19.0297 -88.8878 159° South  Level FlightAware Approximate
11:57AM 18.9190 -88.8441 160° South  Level FlightAware Approximate
11:58AM 18.8082 -88.8004 160° South  Level FlightAware Approximate
11:59AM 18.6974 -88.7567 160° South  Level FlightAware Approximate
12:00PM 18.5866 -88.7132 160° South  Level FlightAware Approximate
12:01PM 18.4758 -88.6696 160° South  Level FlightAware Approximate
12:02PM 18.3648 -88.6267 161° South  Level FlightAware Approximate
12:03PM 18.2529 -88.5866 161° South  Level FlightAware Approximate
12:04PM 18.1409 -88.5466 161° South  Level FlightAware Approximate
12:05PM 18.0289 -88.5067 161° South  Level FlightAware Approximate
12:06PM 17.9170 -88.4668 161° South  Level FlightAware Approximate
12:07PM 17.8078 -88.4192 157° South  Level FlightAware Approximate
12:08PM 17.6985 -88.3717 157° South  Level FlightAware Approximate
12:09PM 17.5893 -88.3243 158° South  Level FlightAware Approximate
12:10PM 17.4794 -88.2784 159° South  Level FlightAware Approximate
12:11PM 17.3690 -88.2341 159° South  Level FlightAware Approximate
12:12PM 17.2586 -88.1898 159° South  Level FlightAware Approximate
12:13PM 17.1481 -88.1457 159° South  Level FlightAware Approximate
12:14PM 17.0377 -88.1015 159° South  Level FlightAware Approximate
12:15PM 16.9264 -88.0572 159° South  Level FlightAware Approximate
12:16PM 16.8152 -88.0128 159° South  Level FlightAware Approximate
12:17PM 16.7040 -87.9686 159° South  Level FlightAware Approximate
12:18PM 16.5928 -87.9243 159° South  Level FlightAware Approximate
12:19PM 16.4815 -87.8802 159° South  Level FlightAware Approximate
12:20PM 16.3702 -87.8361 159° South  Level FlightAware Approximate
12:21PM 16.2590 -87.7920 159° South  Level FlightAware Approximate
12:22PM 16.1477 -87.7480 159° South  Level FlightAware Approximate
12:23PM 16.0364 -87.7040 159° South  Level FlightAware Approximate
12:24PM 15.9251 -87.6601 159° South  Level FlightAware Approximate
12:25PM 15.8138 -87.6162 159° South  Level FlightAware Approximate
12:26PM 15.7025 -87.5724 159° South  Level FlightAware Approximate
12:27PM 15.5911 -87.5286 159° South  Level FlightAware Approximate
12:28PM 15.4798 -87.4849 159° South  Level FlightAware Approximate
12:29PM 15.3686 -87.4408 159° South  Level FlightAware Approximate
12:30PM 15.2575 -87.3965 159° South  Level FlightAware Approximate
12:31PM 15.1464 -87.3522 159° South  Level FlightAware Approximate
12:32PM 15.0353 -87.3079 159° South  Level FlightAware Approximate
12:33PM 14.9242 -87.2637 159° South  Level FlightAware Approximate
12:34PM 14.8131 -87.2195 159° South  Level FlightAware Approximate
12:35PM 14.7020 -87.1754 159° South  Level FlightAware Approximate
12:36PM 14.5908 -87.1313 159° South  Level FlightAware Approximate
12:37PM 14.4797 -87.0873 159° South  Level FlightAware Approximate
12:38PM 14.3685 -87.0433 159° South  Level FlightAware Approximate
12:39PM 14.2574 -86.9994 159° South  Level FlightAware Approximate
12:40PM 14.1463 -86.9552 159° South  Level FlightAware Approximate
12:41PM 14.0353 -86.9108 159° South  Level FlightAware Approximate
12:42PM 13.9244 -86.8664 159° South  Level FlightAware Approximate
12:43PM 13.8128 -86.8236 160° South  Level FlightAware Approximate
12:44PM 13.7010 -86.7816 160° South  Level FlightAware Approximate
12:45PM 13.5897 -86.7382 157° South  Level FlightAware Approximate
12:46PM 13.4802 -86.6903 157° South  Level FlightAware Approximate
12:47PM 13.3707 -86.6424 157° South  Level FlightAware Approximate
12:48PM 13.2594 -86.5989 160° South  Level FlightAware Approximate
12:49PM 13.1477 -86.5565 160° South  Level FlightAware Approximate
12:50PM 13.0361 -86.5142 160° South  Level FlightAware Approximate
12:51PM 12.9244 -86.4718 160° South  Level FlightAware Approximate
12:52PM 12.8139 -86.4265 157° South  Level FlightAware Approximate
12:53PM 12.7042 -86.3795 163° South  Level FlightAware Approximate
12:54PM 12.5901 -86.3444 163° South  Level FlightAware Approximate
12:55PM 12.4771 -86.3065 157° South  Level FlightAware Approximate
12:56PM 12.3680 -86.2580 157° South  Level FlightAware Approximate
12:57PM 12.2579 -86.2123 154° Southeast  Level FlightAware Approximate
12:58PM 12.1469 -86.1701 166° South  Level FlightAware Approximate
12:59PM 12.1415 -86.1682 44° Northeast  Level Estimated
01:00PM 12.1415 -86.1682 44° Northeast  Level Estimated
01:01PM 12.1415 -86.1682 44° Northeast  Level Estimated
01:02PM 12.1415 -86.1682 44° Northeast  Level Estimated
01:03PM 12.1415 -86.1682 44° Northeast  Level Estimated
01:04PM 12.1415 -86.1682 44° Northeast  Level Estimated
01:05PM 12.1415 -86.1682 44° Northeast  Level Estimated
01:06PM 12.1415 -86.1682 44° Northeast  Level Estimated